createdAt,value
2019-02-05T00:00:34.011Z,27.4
2019-02-05T00:01:21.999Z,27.7
2019-02-05T00:02:11.764Z,27.9
2019-02-05T00:03:02.099Z,28.1
2019-02-05T00:03:54.607Z,28.3
2019-02-05T00:04:40.886Z,28.4
2019-02-05T00:05:32.552Z,28.5
2019-02-05T00:06:22.448Z,28.6
2019-02-05T00:07:11.826Z,28.7
2019-02-05T00:08:02.429Z,28.8
2019-02-05T00:08:53.328Z,28.8
2019-02-05T00:09:44.638Z,28.8
2019-02-05T00:10:31.297Z,28.9
2019-02-05T00:11:22.375Z,28.9
2019-02-05T00:12:12.283Z,29
2019-02-05T00:13:04.678Z,29.1
2019-02-05T00:13:52.096Z,29.1
2019-02-05T00:14:42.478Z,28.9
2019-02-05T00:15:33.118Z,28.3
2019-02-05T00:16:22.573Z,27.9
2019-02-05T00:17:13.144Z,27.7
2019-02-05T00:18:02.762Z,27.5
2019-02-05T00:18:56.234Z,27.4
2019-02-05T00:19:43.265Z,27
2019-02-05T00:20:33.427Z,27.1
2019-02-05T00:21:22.935Z,26.9
2019-02-05T00:22:13.671Z,26.9
2019-02-05T00:23:02.485Z,26.9
2019-02-05T00:23:52.842Z,27
2019-02-05T00:24:43.901Z,27.1
2019-02-05T00:25:33.255Z,27.4
2019-02-05T00:26:24.275Z,27.6
2019-02-05T00:28:06.745Z,28
2019-02-05T00:28:54.178Z,28.2
2019-02-05T00:29:43.907Z,28.3
2019-02-05T00:30:33.252Z,28.4
2019-02-05T00:31:25.368Z,28.6
2019-02-05T00:32:13.602Z,28.7
2019-02-05T00:33:02.989Z,28.8
2019-02-05T00:33:54.730Z,28.8
2019-02-05T00:34:44.167Z,28.8
2019-02-05T00:35:34.945Z,28.8
2019-02-05T00:36:23.859Z,28.9
2019-02-05T00:37:16.700Z,28.9
2019-02-05T00:38:04.564Z,29
2019-02-05T00:38:54.901Z,29.1
2019-02-05T00:39:44.659Z,29.1
2019-02-05T00:40:36.881Z,29.1
2019-02-05T00:41:25.329Z,28.4
2019-02-05T00:42:15.106Z,27.9
2019-02-05T00:43:05.336Z,27.7
2019-02-05T00:43:55.244Z,27.5
2019-02-05T00:44:45.106Z,27.4
2019-02-05T00:45:35.628Z,27
2019-02-05T00:46:26.729Z,27.1
2019-02-05T00:47:15.253Z,26.9
2019-02-05T00:48:05.729Z,26.9
2019-02-05T00:48:55.590Z,26.9
2019-02-05T00:49:47.437Z,27
2019-02-05T00:50:35.266Z,27.1
2019-02-05T00:51:25.448Z,27.4
2019-02-05T00:52:16.554Z,27.6
2019-02-05T00:53:56.563Z,28
2019-02-05T00:54:46.153Z,28.2
2019-02-05T00:55:38.153Z,28.3
2019-02-05T00:56:28.061Z,28.4
2019-02-05T00:57:16.727Z,28.6
2019-02-05T00:58:05.823Z,28.7
2019-02-05T00:58:58.063Z,28.8
2019-02-05T00:59:46.405Z,28.8
2019-02-05T01:00:36.785Z,28.8
2019-02-05T01:01:27.286Z,28.9
2019-02-05T01:02:16.301Z,28.9
2019-02-05T01:03:07.410Z,29
2019-02-05T01:03:56.700Z,29
2019-02-05T01:04:49.998Z,29.1
2019-02-05T01:05:36.520Z,29.1
2019-02-05T01:07:17.137Z,28.5
2019-02-05T01:08:08.796Z,28
2019-02-05T01:08:57.565Z,27.7
2019-02-05T01:09:46.497Z,27.5
2019-02-05T01:10:37.732Z,27.4
2019-02-05T01:11:27.842Z,27.1
2019-02-05T01:12:16.666Z,27.2
2019-02-05T01:13:06.384Z,26.9
2019-02-05T01:13:59.330Z,26.9
2019-02-05T01:14:46.661Z,26.9
2019-02-05T01:15:36.474Z,27
2019-02-05T01:16:27.174Z,27.1
2019-02-05T01:17:17.276Z,27.3
2019-02-05T01:18:07.521Z,27.6
2019-02-05T01:19:48.811Z,28
2019-02-05T01:20:37.914Z,28.1
2019-02-05T01:21:27.609Z,28.3
2019-02-05T01:22:18.206Z,28.4
2019-02-05T01:23:09.998Z,28.5
2019-02-05T01:23:57.766Z,28.7
2019-02-05T01:24:48.769Z,28.7
2019-02-05T01:25:38.964Z,28.8
2019-02-05T01:26:41.698Z,28.8
2019-02-05T01:27:17.788Z,28.8
2019-02-05T01:28:08.653Z,28.9
2019-02-05T01:28:59.928Z,28.9
2019-02-05T01:29:48.526Z,29
2019-02-05T01:30:38.648Z,29
2019-02-05T01:31:28.853Z,29.1
2019-02-05T01:32:21.431Z,29.1
2019-02-05T01:33:08.795Z,28.5
2019-02-05T01:33:57.956Z,28.1
2019-02-05T01:34:49.378Z,27.8
2019-02-05T01:35:40.218Z,27.5
2019-02-05T01:36:27.670Z,27.4
2019-02-05T01:37:19.396Z,27.1
2019-02-05T01:38:09.290Z,27.1
2019-02-05T01:38:58.328Z,26.9
2019-02-05T01:39:48.475Z,26.9
2019-02-05T01:40:38.961Z,26.9
2019-02-05T01:41:32.428Z,27
2019-02-05T01:42:18.533Z,27.1
2019-02-05T01:43:08.961Z,27.3
2019-02-05T01:43:58.119Z,27.5
2019-02-05T01:44:50.130Z,27.8
2019-02-05T01:45:39.665Z,27.9
2019-02-05T01:46:30.228Z,28.1
2019-02-05T01:47:20.072Z,28.3
2019-02-05T01:48:08.467Z,28.4
2019-02-05T01:49:00.487Z,28.6
2019-02-05T01:49:49.955Z,28.6
2019-02-05T01:50:41.942Z,28.8
2019-02-05T01:51:30.245Z,28.8
2019-02-05T01:52:19.335Z,28.8
2019-02-05T01:53:09.343Z,28.8
2019-02-05T01:54:01.808Z,28.9
2019-02-05T01:54:49.692Z,28.9
2019-02-05T01:55:40.644Z,29
2019-02-05T01:56:42.605Z,29
2019-02-05T01:57:20.649Z,29.1
2019-02-05T01:58:10.054Z,29.1
2019-02-05T01:59:00.272Z,28.7
2019-02-05T01:59:53.192Z,28.2
2019-02-05T02:01:30.779Z,27.6
2019-02-05T02:02:19.661Z,27.4
2019-02-05T02:03:12.425Z,27.3
2019-02-05T02:04:00.616Z,27.1
2019-02-05T02:04:51.301Z,27
2019-02-05T02:05:42.196Z,26.9
2019-02-05T02:06:30.584Z,26.9
2019-02-05T02:07:20.406Z,27
2019-02-05T02:08:11.079Z,27.1
2019-02-05T02:09:03.038Z,27.3
2019-02-05T02:09:50.256Z,27.5
2019-02-05T02:10:41.373Z,27.7
2019-02-05T02:11:30.731Z,27.9
2019-02-05T02:12:22.474Z,28.1
2019-02-05T02:13:11.121Z,28.2
2019-02-05T02:14:01.891Z,28.4
2019-02-05T02:14:53.598Z,28.5
2019-02-05T02:15:41.775Z,28.6
2019-02-05T02:16:32.046Z,28.7
2019-02-05T02:17:21.913Z,28.7
2019-02-05T02:18:14.308Z,28.8
2019-02-05T02:19:00.143Z,28.8
2019-02-05T02:19:52.009Z,28.8
2019-02-05T02:20:41.240Z,28.9
2019-02-05T02:21:31.550Z,28.9
2019-02-05T02:22:22.342Z,29
2019-02-05T02:23:12.683Z,29
2019-02-05T02:24:04.762Z,29
2019-02-05T02:24:52.468Z,28.7
2019-02-05T02:25:42.387Z,28.1
2019-02-05T02:26:32.222Z,27.8
2019-02-05T02:27:25.632Z,27.6
2019-02-05T02:28:12.590Z,27.4
2019-02-05T02:29:02.638Z,27.1
2019-02-05T02:29:53.487Z,27.1
2019-02-05T02:30:43.020Z,26.9
2019-02-05T02:31:31.934Z,26.9
2019-02-05T02:32:23.251Z,26.9
2019-02-05T02:33:15.469Z,26.9
2019-02-05T02:34:02.829Z,27.1
2019-02-05T02:34:53.253Z,27.3
2019-02-05T02:35:43.137Z,27.4
2019-02-05T02:36:34.934Z,27.7
2019-02-05T02:37:23.317Z,27.9
2019-02-05T02:38:12.928Z,28.1
2019-02-05T02:39:03.604Z,28.3
2019-02-05T02:39:52.887Z,28.4
2019-02-05T02:40:42.972Z,28.5
2019-02-05T02:41:32.369Z,28.6
2019-02-05T02:42:26.189Z,28.7
2019-02-05T02:43:12.414Z,28.7
2019-02-05T02:44:04.306Z,28.8
2019-02-05T02:44:52.502Z,28.8
2019-02-05T02:45:45.164Z,28.9
2019-02-05T02:46:33.236Z,28.9
2019-02-05T02:47:24.031Z,28.9
2019-02-05T02:48:13.594Z,29
2019-02-05T02:49:04.151Z,29
2019-02-05T02:49:54.313Z,29.1
2019-02-05T02:50:44.921Z,28.8
2019-02-05T02:51:36.321Z,28.2
2019-02-05T02:53:13.970Z,27.6
2019-02-05T02:54:04.671Z,27.4
2019-02-05T02:54:59.712Z,27.2
2019-02-05T02:55:45.236Z,27.1
2019-02-05T02:56:34.573Z,26.9
2019-02-05T02:57:25.559Z,26.9
2019-02-05T02:58:18.233Z,26.9
2019-02-05T02:59:05.000Z,26.9
2019-02-05T02:59:54.231Z,27
2019-02-05T03:00:46.935Z,27.2
2019-02-05T03:01:34.711Z,27.4
2019-02-05T03:02:24.489Z,27.6
2019-02-05T03:03:15.276Z,27.9
2019-02-05T03:04:05.698Z,28
2019-02-05T03:04:54.508Z,28.2
2019-02-05T03:08:27.160Z,28.6
2019-02-05T03:09:17.433Z,28.7
2019-02-05T03:10:09.174Z,28.7
2019-02-05T03:10:57.563Z,28.8
2019-02-05T03:11:47.566Z,28.9
2019-02-05T03:12:37.381Z,28.9
2019-02-05T03:13:30.744Z,28.9
2019-02-05T03:14:17.619Z,28.9
2019-02-05T03:15:08.325Z,29
2019-02-05T03:15:58.580Z,29
2019-02-05T03:16:48.615Z,28.8
2019-02-05T03:17:37.617Z,28.1
2019-02-05T03:18:27.909Z,27.8
2019-02-05T03:19:21.391Z,27.5
2019-02-05T03:20:08.364Z,27.3
2019-02-05T03:20:58.047Z,27
2019-02-05T03:21:47.790Z,27.1
2019-02-05T03:22:37.687Z,26.9
2019-02-05T03:23:28.166Z,26.8
2019-02-05T03:24:18.678Z,26.9
2019-02-05T03:25:11.294Z,26.9
2019-02-05T03:25:58.127Z,27.1
2019-02-05T03:26:48.829Z,27.3
2019-02-05T03:27:38.384Z,27.5
2019-02-05T03:28:28.649Z,27.7
2019-02-05T03:29:18.224Z,27.9
2019-02-05T03:30:08.792Z,28.1
2019-02-05T03:31:03.326Z,28.3
2019-02-05T03:31:49.530Z,28.4
2019-02-05T03:32:39.212Z,28.5
2019-02-05T03:33:30.092Z,28.6
2019-02-05T03:34:20.738Z,28.7
2019-02-05T03:35:10.147Z,28.8
2019-02-05T03:35:58.842Z,28.8
2019-02-05T03:36:50.104Z,28.8
2019-02-05T03:37:38.164Z,28.8
2019-02-05T03:38:28.480Z,28.9
2019-02-05T03:39:19.080Z,28.9
2019-02-05T03:40:12.516Z,29
2019-02-05T03:40:59.243Z,29
2019-02-05T03:41:49.520Z,29.1
2019-02-05T03:42:40.218Z,28.9
2019-02-05T03:43:29.087Z,28.3
2019-02-05T03:44:19.190Z,27.9
2019-02-05T03:45:09.887Z,27.6
2019-02-05T03:46:02.707Z,27.4
2019-02-05T03:46:49.526Z,27.3
2019-02-05T03:47:38.990Z,27
2019-02-05T03:48:29.884Z,27.1
2019-02-05T03:49:20.077Z,26.9
2019-02-05T03:50:10.729Z,26.9
2019-02-05T03:50:59.953Z,26.9
2019-02-05T03:51:52.232Z,26.9
2019-02-05T03:52:40.318Z,27.1
2019-02-05T03:53:29.222Z,27.4
2019-02-05T03:54:20.680Z,27.6
2019-02-05T03:56:00.752Z,27.9
2019-02-05T03:56:50.504Z,28
2019-02-05T03:59:41.580Z,27.9
2019-02-05T03:59:55.191Z,27.3
2019-02-05T04:00:42.045Z,27.3
2019-02-05T04:01:32.852Z,27.3
2019-02-05T04:02:22.634Z,27.5
2019-02-05T04:03:14.710Z,27.4
2019-02-05T04:04:02.847Z,27.3
2019-02-05T04:04:52.764Z,27.2
2019-02-05T04:05:43.912Z,26.9
2019-02-05T04:06:32.871Z,26.9
2019-02-05T04:07:22.656Z,27
2019-02-05T04:08:13.049Z,27.2
2019-02-05T04:09:05.222Z,27.4
2019-02-05T04:09:53.209Z,27.7
2019-02-05T04:10:43.128Z,27.9
2019-02-05T04:11:33.486Z,28.1
2019-02-05T04:12:23.790Z,28.2
2019-02-05T04:13:13.619Z,28.3
2019-02-05T04:14:03.130Z,28.4
2019-02-05T04:14:53.440Z,28.6
2019-02-05T04:15:44.055Z,28.6
2019-02-05T04:16:33.322Z,28.7
2019-02-05T04:17:23.704Z,28.7
2019-02-05T04:18:15.712Z,28.8
2019-02-05T04:19:03.441Z,28.8
2019-02-05T04:19:53.866Z,28.9
2019-02-05T04:20:44.142Z,28.9
2019-02-05T04:21:34.198Z,29
2019-02-05T04:22:24.265Z,29
2019-02-05T04:23:13.889Z,29
2019-02-05T04:24:05.914Z,29.1
2019-02-05T04:24:54.426Z,28.3
2019-02-05T04:25:44.398Z,27.9
2019-02-05T04:26:34.198Z,27.6
2019-02-05T04:27:27.123Z,27.4
2019-02-05T04:28:13.338Z,27.1
2019-02-05T04:29:05.055Z,27.1
2019-02-05T04:29:54.933Z,27
2019-02-05T04:30:44.721Z,26.9
2019-02-05T04:31:35.216Z,26.9
2019-02-05T04:32:24.738Z,26.9
2019-02-05T04:33:17.455Z,26.9
2019-02-05T04:34:04.911Z,27.2
2019-02-05T04:34:54.603Z,27.4
2019-02-05T04:35:45.466Z,27.6
2019-02-05T04:37:24.513Z,28
2019-02-05T04:38:14.071Z,28.2
2019-02-05T04:39:05.040Z,28.3
2019-02-05T04:39:55.312Z,28.4
2019-02-05T04:40:45.870Z,28.6
2019-02-05T04:41:35.961Z,28.6
2019-02-05T04:42:28.550Z,28.7
2019-02-05T04:43:15.187Z,28.7
2019-02-05T04:44:05.255Z,28.8
2019-02-05T04:44:55.720Z,28.8
2019-02-05T04:45:47.876Z,28.9
2019-02-05T04:46:36.440Z,28.9
2019-02-05T04:47:25.498Z,28.9
2019-02-05T04:48:16.177Z,28.9
2019-02-05T04:49:05.569Z,28.9
2019-02-05T04:49:55.628Z,28.3
2019-02-05T04:50:46.005Z,27.9
2019-02-05T04:51:38.507Z,27.6
2019-02-05T04:52:25.941Z,27.4
2019-02-05T04:53:16.520Z,27.4
2019-02-05T04:54:06.945Z,27
2019-02-05T04:54:57.204Z,27.2
2019-02-05T04:55:46.021Z,26.9
2019-02-05T04:56:36.244Z,26.9
2019-02-05T04:57:27.702Z,26.9
2019-02-05T04:58:17.129Z,26.9
2019-02-05T04:59:06.563Z,27.1
2019-02-05T04:59:56.594Z,27.3
2019-02-05T05:00:49.655Z,27.5
2019-02-05T05:01:37.316Z,27.8
2019-02-05T05:02:27.461Z,27.9
2019-02-05T05:03:17.594Z,28.1
2019-02-05T05:04:07.861Z,28.3
2019-02-05T05:04:56.491Z,28.4
2019-02-05T05:05:47.361Z,28.5
2019-02-05T05:06:38.730Z,28.6
2019-02-05T05:07:27.151Z,28.6
2019-02-05T05:08:17.765Z,28.6
2019-02-05T05:09:07.668Z,28.7
2019-02-05T05:10:00.006Z,28.7
2019-02-05T05:10:47.218Z,28.8
2019-02-05T05:11:37.507Z,28.8
2019-02-05T05:12:27.714Z,28.9
2019-02-05T05:13:17.678Z,28.9
2019-02-05T05:14:07.401Z,28.9
2019-02-05T05:14:57.470Z,28.9
2019-02-05T05:15:49.805Z,28.3
2019-02-05T05:17:27.511Z,27.6
2019-02-05T05:18:21.004Z,27.4
2019-02-05T05:19:10.324Z,27.1
2019-02-05T05:19:57.799Z,27
2019-02-05T05:20:48.407Z,26.9
2019-02-05T05:21:39.441Z,26.8
2019-02-05T05:22:28.957Z,26.9
2019-02-05T05:23:18.953Z,26.9
2019-02-05T05:24:08.912Z,26.9
2019-02-05T05:25:01.399Z,27.1
2019-02-05T05:25:49.245Z,27.4
2019-02-05T05:26:38.715Z,27.6
2019-02-05T05:27:29.774Z,27.8
2019-02-05T05:28:21.497Z,28
2019-02-05T05:29:09.204Z,28.1
2019-02-05T05:29:59.773Z,28.3
2019-02-05T05:30:51.594Z,28.4
2019-02-05T05:31:40.069Z,28.5
2019-02-05T05:32:29.382Z,28.6
2019-02-05T05:33:19.444Z,28.7
2019-02-05T05:34:10.971Z,28.7
2019-02-05T05:34:59.624Z,28.7
2019-02-05T05:35:54.533Z,28.8
2019-02-05T05:36:40.944Z,28.8
2019-02-05T05:37:29.189Z,28.9
2019-02-05T05:38:20.136Z,28.9
2019-02-05T05:39:09.468Z,28.9
2019-02-05T05:40:04.012Z,29
2019-02-05T05:40:50.573Z,29
2019-02-05T05:41:39.918Z,28.4
2019-02-05T05:42:30.014Z,27.9
2019-02-05T05:43:19.492Z,27.6
2019-02-05T05:44:13.499Z,27.4
2019-02-05T05:44:59.310Z,27.2
2019-02-05T05:45:53.348Z,27
2019-02-05T05:46:40.193Z,27
2019-02-05T05:47:30.688Z,26.9
2019-02-05T05:48:20.819Z,26.9
2019-02-05T05:49:12.863Z,26.9
2019-02-05T05:50:00.682Z,26.9
2019-02-05T05:50:50.756Z,27.1
2019-02-05T05:51:41.843Z,27.3
2019-02-05T05:52:30.338Z,27.6
2019-02-05T05:53:20.903Z,27.8
2019-02-05T05:54:11.130Z,27.9
2019-02-05T05:55:03.933Z,28.1
2019-02-05T05:55:50.509Z,28.3
2019-02-05T05:56:39.777Z,28.4
2019-02-05T05:57:31.090Z,28.5
2019-02-05T05:58:36.120Z,28.6
2019-02-05T05:59:10.610Z,28.6
2019-02-05T06:00:01.039Z,28.6
2019-02-05T06:00:54.857Z,28.7
2019-02-05T06:01:40.603Z,28.8
2019-02-05T06:02:31.107Z,28.8
2019-02-05T06:03:21.463Z,28.9
2019-02-05T06:04:13.225Z,28.9
2019-02-05T06:06:26.624Z,28.9
2019-02-05T06:07:16.289Z,28.7
2019-02-05T06:08:07.859Z,28.1
2019-02-05T06:08:59.802Z,27.8
2019-02-05T06:09:47.564Z,27.5
2019-02-05T06:10:36.442Z,27.3
2019-02-05T06:11:26.579Z,27.1
2019-02-05T06:12:16.773Z,27.1
2019-02-05T06:13:07.754Z,26.9
2019-02-05T06:13:57.570Z,26.8
2019-02-05T06:14:48.555Z,26.9
2019-02-05T06:15:40.909Z,26.9
2019-02-05T06:16:28.061Z,27.1
2019-02-05T06:17:17.249Z,27.3
2019-02-05T06:18:11.972Z,27.4
2019-02-05T06:18:58.283Z,27.7
2019-02-05T06:19:47.205Z,27.9
2019-02-05T06:20:37.887Z,28.1
2019-02-05T06:21:27.030Z,28.2
2019-02-05T06:22:18.301Z,28.3
2019-02-05T06:23:08.851Z,28.3
2019-02-05T06:24:01.364Z,28.1
2019-02-05T06:24:47.971Z,27.9
2019-02-05T06:25:37.518Z,27.7
2019-02-05T06:26:31.263Z,27.6
2019-02-05T06:27:19.241Z,27.7
2019-02-05T06:28:58.670Z,27.6
2019-02-05T06:29:49.369Z,27.5
2019-02-05T06:30:38.547Z,27.3
2019-02-05T06:31:28.606Z,27.1
2019-02-05T06:32:19.393Z,27.1
2019-02-05T06:33:10.978Z,27.4
2019-02-05T06:33:59.298Z,27.6
2019-02-05T06:35:39.215Z,28
2019-02-05T06:36:29.756Z,28.1
2019-02-05T06:37:19.859Z,28.3
2019-02-05T06:38:09.551Z,28.4
2019-02-05T06:39:01.435Z,28.4
2019-02-05T06:39:49.962Z,28.4
2019-02-05T06:40:40.241Z,28.4
2019-02-05T06:41:29.005Z,28.5
2019-02-05T06:42:22.725Z,28.6
2019-02-05T06:43:09.636Z,28.6
2019-02-05T06:43:58.908Z,28.6
2019-02-05T06:44:50.212Z,28.6
2019-02-05T06:45:42.620Z,28.4
2019-02-05T06:46:30.088Z,27.9
2019-02-05T06:47:18.805Z,27.6
2019-02-05T06:48:12.837Z,27.3
2019-02-05T06:48:59.682Z,27.2
2019-02-05T06:49:50.209Z,27.1
2019-02-05T06:50:40.689Z,27.1
2019-02-05T06:51:29.489Z,27
2019-02-05T06:52:20.049Z,26.9
2019-02-05T06:53:10.467Z,26.9
2019-02-05T06:54:01.744Z,26.9
2019-02-05T06:54:49.984Z,26.9
2019-02-05T06:55:40.267Z,26.8
2019-02-05T06:56:30.909Z,26.5
2019-02-05T06:57:22.381Z,26.6
2019-02-05T06:58:10.766Z,26.4
2019-02-05T06:58:59.876Z,26.4
2019-02-05T06:59:50.962Z,26.4
2019-02-05T07:00:39.426Z,26.5
2019-02-05T07:01:30.923Z,26.6
2019-02-05T07:02:19.919Z,26.8
2019-02-05T07:03:13.655Z,26.9
2019-02-05T07:04:01.437Z,27.1
2019-02-05T07:06:26.244Z,27.2
2019-02-05T07:07:16.119Z,27.3
2019-02-05T07:08:06.644Z,27.3
2019-02-05T07:08:59.247Z,27.3
2019-02-05T07:09:46.264Z,27.3
2019-02-05T07:10:37.460Z,27.2
2019-02-05T07:11:27.242Z,27.2
2019-02-05T07:12:17.198Z,26.8
2019-02-05T07:13:06.423Z,26.6
2019-02-05T07:14:00.263Z,26.4
2019-02-05T07:14:49.376Z,26.3
2019-02-05T07:15:37.573Z,26.2
2019-02-05T07:16:27.125Z,26.1
2019-02-05T07:17:17.395Z,26.1
2019-02-05T07:18:12.111Z,26.1
2019-02-05T07:18:56.808Z,26
2019-02-05T07:19:47.763Z,26
2019-02-05T07:20:37.905Z,25.9
2019-02-05T07:21:27.835Z,25.8
2019-02-05T07:22:18.615Z,25.9
2019-02-05T07:23:08.419Z,26
2019-02-05T07:24:00.498Z,25.9
2019-02-05T07:24:47.264Z,26
2019-02-05T07:25:38.420Z,26.1
2019-02-05T07:26:27.885Z,26.1
2019-02-05T07:27:16.921Z,26.3
2019-02-05T07:28:07.543Z,26.6
2019-02-05T07:29:11.494Z,26.9
2019-02-05T07:29:50.727Z,27.1
2019-02-05T07:30:38.007Z,27.1
2019-02-05T07:31:27.996Z,27.2
2019-02-05T07:32:18.737Z,27.3
2019-02-05T07:33:10.638Z,27.3
2019-02-05T07:33:58.045Z,27.3
2019-02-05T07:34:48.954Z,27.3
2019-02-05T07:35:40.337Z,27.3
2019-02-05T07:36:28.634Z,27.3
2019-02-05T07:37:19.598Z,27.3
2019-02-05T07:38:08.741Z,26.9
2019-02-05T07:38:59.592Z,26.6
2019-02-05T07:39:48.631Z,26.4
2019-02-05T07:40:38.915Z,26.3
2019-02-05T07:41:30.751Z,26.2
2019-02-05T07:42:18.750Z,26.1
2019-02-05T07:43:07.764Z,26.1
2019-02-05T07:43:58.093Z,26
2019-02-05T07:44:52.133Z,25.9
2019-02-05T07:45:38.233Z,25.8
2019-02-05T07:46:29.379Z,26
2019-02-05T07:47:23.939Z,25.9
2019-02-05T07:48:09.369Z,25.9
2019-02-05T07:48:59.063Z,26
2019-02-05T07:49:50.693Z,26
2019-02-05T07:50:42.433Z,26.1
2019-02-05T07:51:30.464Z,26.4
2019-02-05T07:52:19.903Z,26.6
2019-02-05T07:53:09.946Z,26.9
2019-02-05T07:53:58.871Z,27.1
2019-02-05T07:54:50.058Z,27.1
2019-02-05T07:55:39.828Z,27.2
2019-02-05T07:56:33.443Z,27.3
2019-02-05T07:57:20.668Z,27.3
2019-02-05T07:58:11.046Z,27.3
2019-02-05T07:59:13.442Z,27.3
2019-02-05T07:59:56.146Z,27.3
2019-02-05T08:00:40.983Z,27.3
2019-02-05T08:01:30.315Z,27.3
2019-02-05T08:02:23.845Z,27.3
2019-02-05T08:03:10.885Z,26.8
2019-02-05T08:04:00.987Z,26.5
2019-02-05T08:04:51.365Z,26.3
2019-02-05T08:05:43.152Z,26.2
2019-02-05T08:06:30.551Z,26.1
2019-02-05T08:07:21.412Z,26.1
2019-02-05T08:08:25.487Z,26
2019-02-05T08:09:01.506Z,25.9
2019-02-05T08:09:50.793Z,25.8
2019-02-05T08:10:41.269Z,25.8
2019-02-05T08:11:33.459Z,26.1
2019-02-05T08:12:21.574Z,26.7
2019-02-05T08:13:11.754Z,26.6
2019-02-05T08:14:01.966Z,26.3
2019-02-05T08:14:51.222Z,26.1
2019-02-05T08:15:41.479Z,26
2019-02-05T08:16:35.012Z,26.1
2019-02-05T08:17:21.619Z,26.3
2019-02-05T08:18:12.222Z,26.5
2019-02-05T08:19:02.229Z,26.6
2019-02-05T08:19:54.482Z,26.7
2019-02-05T08:20:42.364Z,26.9
2019-02-05T08:21:32.235Z,26.9
2019-02-05T08:22:22.556Z,27
2019-02-05T08:23:13.231Z,27.1
2019-02-05T08:24:01.736Z,27.1
2019-02-05T08:24:52.559Z,27.1
2019-02-05T08:25:44.396Z,27.2
2019-02-05T08:26:32.185Z,27
2019-02-05T08:27:22.289Z,26.5
2019-02-05T08:28:13.141Z,26.2
2019-02-05T08:29:05.428Z,26
2019-02-05T08:29:51.837Z,25.9
2019-02-05T08:30:41.986Z,25.9
2019-02-05T08:31:32.638Z,25.8
2019-02-05T08:32:23.480Z,25.8
2019-02-05T08:33:12.213Z,25.8
2019-02-05T08:34:05.976Z,25.7
2019-02-05T08:34:55.650Z,25.5
2019-02-05T08:35:42.320Z,25.6
2019-02-05T08:36:33.416Z,25.9
2019-02-05T08:37:24.467Z,26.4
2019-02-05T08:38:13.040Z,26.1
2019-02-05T08:39:03.857Z,25.9
2019-02-05T08:39:51.815Z,25.8
2019-02-05T08:40:45.805Z,25.8
2019-02-05T08:41:31.660Z,25.9
2019-02-05T08:42:22.895Z,26.1
2019-02-05T08:43:13.109Z,26.4
2019-02-05T08:44:05.844Z,26.6
2019-02-05T08:44:53.707Z,26.7
2019-02-05T08:45:43.707Z,26.8
2019-02-05T08:46:35.042Z,26.9
2019-02-05T08:47:24.144Z,27
2019-02-05T08:48:14.222Z,27.1
2019-02-05T08:49:04.542Z,27.1
2019-02-05T08:49:56.784Z,27.1
2019-02-05T08:50:44.326Z,27.2
2019-02-05T08:51:33.133Z,27.2
2019-02-05T08:52:23.974Z,27.2
2019-02-05T08:53:13.986Z,27.2
2019-02-05T08:54:04.389Z,27.2
2019-02-05T08:54:54.559Z,27.1
2019-02-05T08:55:47.411Z,27.1
2019-02-05T08:56:34.097Z,27.1
2019-02-05T08:57:24.878Z,27.1
2019-02-05T08:58:13.960Z,27.1
2019-02-05T08:59:04.689Z,27
2019-02-05T08:59:55.183Z,27
2019-02-05T09:00:45.636Z,26.9
2019-02-05T09:01:37.921Z,26.4
2019-02-05T09:02:23.825Z,26
2019-02-05T09:03:15.624Z,26
2019-02-05T09:04:04.573Z,26.5
2019-02-05T09:04:56.793Z,26.2
2019-02-05T09:05:45.976Z,25.8
2019-02-05T09:06:38.736Z,25.7
2019-02-05T09:07:27.036Z,25.6
2019-02-05T09:08:15.832Z,25.7
2019-02-05T09:09:05.428Z,26
2019-02-05T09:09:55.773Z,26.3
2019-02-05T09:10:47.620Z,26.4
2019-02-05T09:11:34.870Z,26.6
2019-02-05T09:12:28.757Z,26.7
2019-02-05T09:13:15.190Z,26.8
2019-02-05T09:14:20.010Z,26.9
2019-02-05T09:14:55.096Z,27
2019-02-05T09:15:45.753Z,27.1
2019-02-05T09:16:38.485Z,27.1
2019-02-05T09:17:28.855Z,27.1
2019-02-05T09:18:14.795Z,27.1
2019-02-05T09:19:06.781Z,27.1
2019-02-05T09:19:55.923Z,27.1
2019-02-05T09:20:45.707Z,27.2
2019-02-05T09:21:35.952Z,27.1
2019-02-05T09:22:28.024Z,27.1
2019-02-05T09:23:19.817Z,27.1
2019-02-05T09:24:06.467Z,27.1
2019-02-05T09:24:55.760Z,27.1
2019-02-05T09:25:51.735Z,27
2019-02-05T09:26:36.599Z,27
2019-02-05T09:27:27.557Z,26.9
2019-02-05T09:28:17.074Z,26.9
2019-02-05T09:29:07.434Z,26.2
2019-02-05T09:29:57.087Z,25.9
2019-02-05T09:30:48.020Z,26.1
2019-02-05T09:31:39.781Z,26.5
2019-02-05T09:32:26.746Z,25.9
2019-02-05T09:33:17.279Z,25.6
2019-02-05T09:34:06.949Z,25.5
2019-02-05T09:34:58.169Z,25.5
2019-02-05T09:35:47.148Z,25.7
2019-02-05T09:36:36.414Z,26.1
2019-02-05T09:37:28.855Z,26.3
2019-02-05T09:39:04.658Z,26.6
2019-02-05T09:39:58.153Z,26.7
2019-02-05T09:40:49.306Z,26.8
2019-02-05T09:41:37.128Z,26.9
2019-02-05T09:42:27.142Z,27
2019-02-05T09:43:19.543Z,27.1
2019-02-05T09:44:07.526Z,27.1
2019-02-05T09:44:58.823Z,27.1
2019-02-05T09:45:48.378Z,27.2
2019-02-05T09:46:40.975Z,27.2
2019-02-05T09:47:28.961Z,27.2
2019-02-05T09:48:18.685Z,27.2
2019-02-05T09:49:22.688Z,27.2
2019-02-05T09:49:58.763Z,27.2
2019-02-05T09:50:56.130Z,27.1
2019-02-05T09:51:39.168Z,27.1
2019-02-05T09:52:31.532Z,27.1
2019-02-05T09:53:19.126Z,27.1
2019-02-05T09:54:08.533Z,27.1
2019-02-05T09:54:58.920Z,27
2019-02-05T09:55:53.473Z,26.9
2019-02-05T09:56:39.037Z,26.1
2019-02-05T09:57:29.213Z,26
2019-02-05T09:58:20.040Z,26.1
2019-02-05T09:59:09.143Z,26.5
2019-02-05T09:59:57.910Z,25.9
2019-02-05T10:00:49.205Z,25.6
2019-02-05T10:01:40.575Z,25.4
2019-02-05T10:02:30.160Z,25.4
2019-02-05T10:03:20.239Z,25.7
2019-02-05T10:04:10.162Z,26
2019-02-05T10:04:59.719Z,26.3
2019-02-05T10:07:42.444Z,26.6
2019-02-05T10:08:20.657Z,26.8
2019-02-05T10:09:23.857Z,26.9
2019-02-05T10:10:17.314Z,26.9
2019-02-05T10:10:52.213Z,27
2019-02-05T10:12:25.124Z,27.1
2019-02-05T10:12:38.094Z,27.1
2019-02-05T10:14:14.316Z,27.1
2019-02-05T10:14:58.015Z,27.1
2019-02-05T10:16:00.067Z,27.1
2019-02-05T10:16:29.381Z,27.1
2019-02-05T10:17:32.016Z,27.1
2019-02-05T10:18:40.854Z,27.1
2019-02-05T10:18:56.342Z,27.1
2019-02-05T10:20:15.386Z,27.1
2019-02-05T10:20:51.598Z,27.1
2019-02-05T10:22:21.556Z,27
2019-02-05T10:23:05.079Z,26.9
2019-02-05T10:23:41.367Z,26.4
2019-02-05T10:24:46.103Z,26
2019-02-05T10:26:47.028Z,25.9
2019-02-05T10:27:03.381Z,25.5
2019-02-05T10:27:48.931Z,25.4
2019-02-05T10:28:38.709Z,25.4
2019-02-05T10:29:32.390Z,25.3
2019-02-05T10:30:17.453Z,25.5
2019-02-05T10:31:08.003Z,25.8
2019-02-05T10:32:14.402Z,26.1
2019-02-05T10:32:51.821Z,26.4
2019-02-05T10:33:39.143Z,26.5
2019-02-05T10:34:41.430Z,26.6
2019-02-05T10:35:20.790Z,26.8
2019-02-05T10:36:12.534Z,26.8
2019-02-05T10:36:59.030Z,26.9
2019-02-05T10:38:04.362Z,27
2019-02-05T10:38:41.315Z,27.1
2019-02-05T10:39:30.612Z,27.1
2019-02-05T10:40:19.935Z,27.2
2019-02-05T10:41:10.073Z,27.2
2019-02-05T10:41:59.767Z,27.2
2019-02-05T10:42:52.778Z,27.2
2019-02-05T10:43:40.110Z,27.2
2019-02-05T10:44:32.451Z,27.2
2019-02-05T10:45:52.660Z,27.2
2019-02-05T10:46:09.312Z,27.2
2019-02-05T10:46:59.262Z,27.2
2019-02-05T10:47:49.205Z,27.1
2019-02-05T10:48:40.622Z,27.1
2019-02-05T10:49:30.634Z,27.1
2019-02-05T10:50:23.266Z,27.1
2019-02-05T10:51:09.267Z,26.8
2019-02-05T10:51:58.714Z,26.1
2019-02-05T10:52:50.287Z,26
2019-02-05T10:53:41.035Z,26.6
2019-02-05T10:54:30.304Z,25.8
2019-02-05T10:55:19.904Z,25.5
2019-02-05T10:56:12.461Z,25.4
2019-02-05T10:57:00.049Z,25.3
2019-02-05T10:57:50.760Z,25.5
2019-02-05T10:58:40.108Z,25.9
2019-02-05T10:59:33.529Z,26.2
2019-02-05T11:00:35.501Z,26.4
2019-02-05T11:01:10.534Z,26.6
2019-02-05T11:02:01.941Z,26.6
2019-02-05T11:02:52.326Z,26.8
2019-02-05T11:03:40.888Z,26.9
2019-02-05T11:04:31.740Z,27
2019-02-05T11:05:23.283Z,27.1
2019-02-05T11:06:10.202Z,27.1
2019-02-05T11:07:01.167Z,27.2
2019-02-05T11:07:52.367Z,27.3
2019-02-05T11:08:56.381Z,27.3
2019-02-05T11:09:31.518Z,27.3
2019-02-05T11:10:21.368Z,27.3
2019-02-05T11:11:14.393Z,27.3
2019-02-05T11:12:01.868Z,27.3
2019-02-05T11:12:51.593Z,27.3
2019-02-05T11:13:41.620Z,27.3
2019-02-05T11:14:33.128Z,27.3
2019-02-05T11:15:22.827Z,27.3
2019-02-05T11:16:12.193Z,27.2
2019-02-05T11:17:02.427Z,27.2
2019-02-05T11:17:51.863Z,27.1
2019-02-05T11:18:42.438Z,26.6
2019-02-05T11:19:32.078Z,26.1
2019-02-05T11:20:25.157Z,26.4
2019-02-05T11:21:15.140Z,25.9
2019-02-05T11:22:01.937Z,25.5
2019-02-05T11:22:52.140Z,25.4
2019-02-05T11:23:43.575Z,25.3
2019-02-05T11:24:33.457Z,25.4
2019-02-05T11:25:23.239Z,25.8
2019-02-05T11:26:15.832Z,26.1
2019-02-05T11:27:03.780Z,26.4
2019-02-05T11:27:55.404Z,26.5
2019-02-05T11:28:42.614Z,26.6
2019-02-05T11:29:35.147Z,26.8
2019-02-05T11:30:30.238Z,26.9
2019-02-05T11:31:13.421Z,27